Time;durP1;ratioP1;P1;durP2;ratioP2;P2;SDS_P1;SDS_P2;PMS_P1;PMS_P2;Temp;Humidity;BMP_temperature;BMP_pressure;BME280_temperature;BME280_humidity;BME280_pressure;Samples;Min_cycle;Max_cycle;Signal;HPM_P1;HPM_P2
2023/03/13 00:00:55;;;;;;;17.88;2.90;;;11.80;99.90;;;;;;5059043;28;20510;-70
2023/03/13 00:03:20;;;;;;;9.70;2.70;;;11.80;99.90;;;;;;5060737;28;20048;-70
2023/03/13 00:05:46;;;;;;;14.53;2.60;;;11.90;99.90;;;;;;5059933;28;20097;-70
2023/03/13 00:08:12;;;;;;;10.23;2.23;;;11.80;99.90;;;;;;5059381;28;20021;-70
2023/03/13 00:10:39;;;;;;;12.35;2.38;;;11.70;99.90;;;;;;5060013;28;20259;-70
2023/03/13 00:13:05;;;;;;;12.90;2.13;;;11.70;99.90;;;;;;5060200;28;20108;-70
2023/03/13 00:15:31;;;;;;;10.75;2.42;;;11.70;99.90;;;;;;5064669;28;20028;-69
2023/03/13 00:17:56;;;;;;;12.50;2.50;;;11.70;99.90;;;;;;5099519;28;20144;-70
2023/03/13 00:20:22;;;;;;;9.30;1.90;;;11.70;99.90;;;;;;5100598;28;20075;-71
2023/03/13 00:22:47;;;;;;;11.60;2.53;;;11.70;99.90;;;;;;5099178;28;20051;-70
2023/03/13 00:25:13;;;;;;;13.37;2.33;;;11.70;99.90;;;;;;5098055;28;20170;-69
2023/03/13 00:27:39;;;;;;;8.98;2.60;;;11.90;99.90;;;;;;5062687;28;20036;-69
2023/03/13 00:30:05;;;;;;;12.70;2.20;;;11.90;99.90;;;;;;5081572;28;20076;-70
2023/03/13 00:32:30;;;;;;;10.73;2.20;;;11.90;99.90;;;;;;5080882;28;20055;-70
2023/03/13 00:34:57;;;;;;;10.53;2.00;;;12.00;99.90;;;;;;5062909;28;20032;-69
2023/03/13 00:37:22;;;;;;;;;;;12.00;99.90;;;;;;5089979;28;20016;-69
2023/03/13 00:39:48;;;;;;;8.43;2.08;;;11.90;99.90;;;;;;5098035;28;20048;-69
2023/03/13 00:42:13;;;;;;;12.97;2.03;;;12.00;99.90;;;;;;5098694;28;20031;-70
2023/03/13 00:44:39;;;;;;;9.63;1.83;;;11.90;99.90;;;;;;5100651;28;20036;-70
2023/03/13 00:47:05;;;;;;;9.97;2.40;;;12.00;99.90;;;;;;5083218;28;20430;-69
2023/03/13 00:49:31;;;;;;;9.15;1.92;;;11.90;99.90;;;;;;5097046;28;20020;-69
2023/03/13 00:51:57;;;;;;;13.63;1.83;;;11.90;99.90;;;;;;5096172;28;20058;-70
2023/03/13 00:54:23;;;;;;;8.33;2.23;;;12.00;99.90;;;;;;5095899;28;20093;-69
2023/03/13 00:56:48;;;;;;;6.90;1.57;;;12.10;99.90;;;;;;5077740;28;20111;-70
2023/03/13 00:59:14;;;;;;;8.60;1.77;;;12.10;99.90;;;;;;5098599;28;20061;-70
2023/03/13 01:01:39;;;;;;;8.77;1.80;;;12.20;99.90;;;;;;5100145;28;20247;-70
2023/03/13 01:04:08;;;;;;;8.75;2.63;;;12.20;99.90;;;;;;5101323;28;20032;-69
2023/03/13 01:06:36;;;;;;;8.77;1.77;;;12.20;99.90;;;;;;5104395;28;20055;-70
2023/03/13 01:09:04;;;;;;;7.85;1.98;;;12.20;99.90;;;;;;5076545;28;20024;-70
2023/03/13 01:11:32;;;;;;;8.07;1.63;;;12.20;99.90;;;;;;5080115;28;20473;-70
2023/03/13 01:14:00;;;;;;;8.57;1.70;;;12.20;99.90;;;;;;5080786;28;20036;-70
2023/03/13 01:16:27;;;;;;;9.13;1.67;;;12.30;99.90;;;;;;5063282;28;20039;-71
2023/03/13 01:18:55;;;;;;;7.03;1.85;;;12.20;99.90;;;;;;5080303;28;20078;-69
2023/03/13 01:21:23;;;;;;;10.95;1.70;;;12.20;99.90;;;;;;5081485;28;20016;-69
2023/03/13 01:23:49;;;;;;;7.97;1.67;;;12.20;99.90;;;;;;5083778;28;20035;-69
2023/03/13 01:26:15;;;;;;;5.90;1.65;;;12.20;99.90;;;;;;5083216;28;20017;-70
2023/03/13 01:28:41;;;;;;;7.50;1.75;;;12.30;99.90;;;;;;5099061;28;20028;-69
2023/03/13 01:31:17;;;;;;;7.72;1.55;;;12.20;99.90;;;;;;5107901;28;20062;-69
2023/03/13 01:33:43;;;;;;;4.70;1.42;;;12.30;99.90;;;;;;5084263;28;20105;-70
2023/03/13 01:36:08;;;;;;;8.00;1.58;;;12.30;99.90;;;;;;5100660;28;20449;-70
2023/03/13 01:38:35;;;;;;;7.87;1.53;;;12.40;99.90;;;;;;5099872;28;20020;-69
2023/03/13 01:41:00;;;;;;;10.57;2.35;;;12.30;99.90;;;;;;5105065;28;20292;-70
2023/03/13 01:43:28;;;;;;;9.77;1.53;;;12.30;99.90;;;;;;5087241;28;20058;-71
2023/03/13 01:46:07;;;;;;;7.22;1.38;;;12.40;99.90;;;;;;5088499;28;20016;-70
2023/03/13 01:48:41;;;;;;;9.20;1.60;;;12.30;99.90;;;;;;5105367;28;20044;-70
2023/03/13 01:51:15;;;;;;;5.40;1.40;;;12.30;99.90;;;;;;5104277;28;20020;-69
2023/03/13 01:53:45;;;;;;;8.00;1.40;;;12.30;99.90;;;;;;5102678;28;20032;-70
2023/03/13 01:56:19;;;;;;;8.85;1.30;;;12.30;99.90;;;;;;5105841;28;20031;-70
2023/03/13 01:58:46;;;;;;;8.75;1.35;;;12.20;99.90;;;;;;5105632;28;20057;-70
2023/03/13 02:01:12;;;;;;;5.93;1.23;;;12.10;99.90;;;;;;5105678;28;20063;-69
2023/03/13 02:03:38;;;;;;;;;;;12.20;99.90;;;;;;5111912;28;20066;-69
2023/03/13 02:06:05;;;;;;;5.00;1.30;;;12.20;99.90;;;;;;5085474;28;20343;-69
2023/03/13 02:08:36;;;;;;;8.05;1.52;;;12.20;99.90;;;;;;5107603;28;20035;-70
2023/03/13 02:11:16;;;;;;;6.93;1.33;;;12.20;99.90;;;;;;5080888;28;20392;-70
2023/03/13 02:13:43;;;;;;;8.43;1.95;;;12.20;99.90;;;;;;5101564;28;20028;-70
2023/03/13 02:16:09;;;;;;;5.78;1.20;;;12.20;99.90;;;;;;5104502;28;20030;-69
2023/03/13 02:18:36;;;;;;;4.47;0.98;;;12.00;99.90;;;;;;5107800;28;20020;-71
2023/03/13 02:21:13;;;;;;;5.13;1.10;;;12.00;99.90;;;;;;5108189;28;20023;-71
2023/03/13 02:24:02;;;;;;;2.13;0.93;;;12.10;99.90;;;;;;5107162;28;20080;-70
2023/03/13 02:26:27;;;;;;;7.40;1.40;;;12.10;99.90;;;;;;5086642;28;20762;-70
2023/03/13 02:28:53;;;;;;;5.27;1.33;;;12.10;99.90;;;;;;5088092;28;20035;-70
2023/03/13 02:31:19;;;;;;;6.93;1.05;;;12.00;99.90;;;;;;5106305;28;20499;-70
2023/03/13 02:33:45;;;;;;;6.97;1.13;;;12.00;99.90;;;;;;5087512;28;20028;-70
2023/03/13 02:36:13;;;;;;;4.47;1.23;;;12.10;99.90;;;;;;5085682;28;20028;-70
2023/03/13 02:38:55;;;;;;;2.75;0.88;;;12.10;99.90;;;;;;5103910;28;20044;-70
2023/03/13 02:41:22;;;;;;;4.80;1.20;;;12.10;99.90;;;;;;5103169;28;20060;-70
2023/03/13 02:43:48;;;;;;;5.20;1.10;;;12.10;99.90;;;;;;5103758;28;20051;-70
2023/03/13 02:46:16;;;;;;;4.27;1.07;;;12.00;99.90;;;;;;5100082;28;20028;-71
2023/03/13 02:48:45;;;;;;;4.50;0.90;;;12.00;99.90;;;;;;5102639;28;20061;-70
2023/03/13 02:51:21;;;;;;;5.43;1.20;;;12.10;99.90;;;;;;5104081;28;20078;-70
2023/03/13 02:53:49;;;;;;;3.65;0.85;;;12.10;99.90;;;;;;5086222;28;20028;-70
2023/03/13 02:56:18;;;;;;;5.82;1.10;;;12.00;99.90;;;;;;5101009;28;20020;-70
2023/03/13 02:58:43;;;;;;;3.40;0.90;;;12.00;99.90;;;;;;5097039;28;20034;-70
2023/03/13 03:01:09;;;;;;;6.03;1.20;;;12.00;99.90;;;;;;5097962;28;20106;-70
2023/03/13 03:03:38;;;;;;;7.37;0.93;;;12.00;99.90;;;;;;5079187;28;20114;-70
2023/03/13 03:06:05;;;;;;;5.07;1.10;;;12.10;99.90;;;;;;5097190;28;20618;-70
2023/03/13 03:08:31;;;;;;;6.57;1.13;;;12.10;99.90;;;;;;5096712;28;20031;-70
2023/03/13 03:10:56;;;;;;;3.43;0.90;;;12.10;99.90;;;;;;5095191;28;20353;-70
2023/03/13 03:13:22;;;;;;;4.77;0.70;;;12.10;99.90;;;;;;5095444;28;20258;-70
2023/03/13 03:15:47;;;;;;;4.50;0.90;;;12.10;99.90;;;;;;5094908;28;20024;-69
2023/03/13 03:18:13;;;;;;;3.83;0.93;;;12.20;99.90;;;;;;5095378;28;20528;-69
2023/03/13 03:20:38;;;;;;;3.73;1.10;;;12.10;99.90;;;;;;5094862;28;20050;-71
2023/03/13 03:23:04;;;;;;;2.77;1.00;;;12.10;99.90;;;;;;5095098;28;20043;-70
2023/03/13 03:25:29;;;;;;;4.70;1.00;;;12.10;99.90;;;;;;5095203;28;20123;-70
2023/03/13 03:27:55;;;;;;;5.47;0.80;;;12.10;99.90;;;;;;5094961;28;20074;-70
2023/03/13 03:30:20;;;;;;;4.37;0.90;;;12.10;99.90;;;;;;5095033;28;20020;-68
2023/03/13 03:32:46;;;;;;;6.07;0.93;;;12.10;99.90;;;;;;5075606;28;20463;-68
2023/03/13 03:35:11;;;;;;;4.27;0.90;;;12.20;99.90;;;;;;5076951;28;20342;-68
2023/03/13 03:37:37;;;;;;;2.97;0.70;;;12.10;99.90;;;;;;5094328;28;20080;-68
2023/03/13 03:40:06;;;;;;;1.97;0.87;;;12.10;99.90;;;;;;5093955;28;20089;-68
2023/03/13 03:42:32;;;;;;;2.38;0.50;;;12.20;99.90;;;;;;5093892;28;20103;-68
2023/03/13 03:44:58;;;;;;;;;;;12.20;99.90;;;;;;5094330;28;20456;-68
2023/03/13 03:47:23;;;;;;;2.65;0.47;;;12.20;99.90;;;;;;5075386;28;20112;-68
2023/03/13 03:49:49;;;;;;;2.37;0.80;;;12.10;99.90;;;;;;5075437;28;20097;-67
2023/03/13 03:52:15;;;;;;;3.93;1.03;;;12.10;99.90;;;;;;5093547;28;20037;-67
2023/03/13 03:54:40;;;;;;;2.73;0.57;;;12.10;99.90;;;;;;5075313;28;20134;-68
2023/03/13 03:57:06;;;;;;;3.30;0.77;;;12.20;99.90;;;;;;5093848;28;20062;-67
2023/03/13 03:59:31;;;;;;;4.57;0.80;;;12.10;99.90;;;;;;5093489;28;20420;-67
2023/03/13 04:01:57;;;;;;;2.20;0.77;;;12.10;99.90;;;;;;5093370;28;20095;-67
2023/03/13 04:04:22;;;;;;;3.33;0.90;;;12.10;99.90;;;;;;5093631;28;20450;-67
2023/03/13 04:06:48;;;;;;;1.97;0.80;;;12.20;99.90;;;;;;5075162;28;20373;-67
2023/03/13 04:09:13;;;;;;;3.80;0.90;;;12.10;99.90;;;;;;5093383;28;20085;-67
2023/03/13 04:11:39;;;;;;;2.13;0.80;;;12.20;99.90;;;;;;5075596;28;20369;-67
2023/03/13 04:14:04;;;;;;;3.13;0.83;;;12.30;99.90;;;;;;5075386;28;20020;-67
2023/03/13 04:16:30;;;;;;;6.10;1.10;;;12.30;99.90;;;;;;5093873;28;20024;-67
2023/03/13 04:18:55;;;;;;;2.17;1.00;;;12.20;99.90;;;;;;5093457;28;20020;-67
2023/03/13 04:21:21;;;;;;;3.73;0.80;;;12.30;99.90;;;;;;5093210;28;20480;-67
2023/03/13 04:23:46;;;;;;;4.20;0.80;;;12.30;99.90;;;;;;5094484;28;20020;-67
2023/03/13 04:26:12;;;;;;;2.87;0.80;;;12.30;99.90;;;;;;5093402;28;20103;-67
2023/03/13 04:28:37;;;;;;;4.07;1.10;;;12.30;99.90;;;;;;5093052;28;20557;-68
2023/03/13 04:31:03;;;;;;;1.73;0.70;;;12.30;99.90;;;;;;5098876;28;20020;-68
2023/03/13 04:33:29;;;;;;;2.05;1.00;;;12.40;99.90;;;;;;5086510;28;20059;-67
2023/03/13 04:35:54;;;;;;;4.07;0.63;;;12.40;99.90;;;;;;5087883;28;20066;-68
2023/03/13 04:38:20;;;;;;;3.23;0.93;;;12.40;99.90;;;;;;5102048;28;20027;-67
2023/03/13 04:40:46;;;;;;;3.20;0.60;;;12.40;99.90;;;;;;5079006;28;20101;-67
2023/03/13 04:43:12;;;;;;;;;;;12.50;99.90;;;;;;5098687;28;20020;-67
2023/03/13 04:45:37;;;;;;;2.70;0.75;;;12.50;99.90;;;;;;5098167;28;19914;-68
2023/03/13 04:48:03;;;;;;;1.90;0.67;;;12.50;99.90;;;;;;5078677;28;20051;-68
2023/03/13 04:50:28;;;;;;;5.07;0.80;;;12.50;99.90;;;;;;5097007;28;20043;-67
2023/03/13 04:52:54;;;;;;;4.60;1.10;;;12.50;99.90;;;;;;5097340;28;20023;-68
2023/03/13 04:55:19;;;;;;;3.77;0.90;;;12.60;99.90;;;;;;5097093;28;20480;-67
2023/03/13 04:57:45;;;;;;;4.30;0.67;;;12.60;99.90;;;;;;5078833;28;20054;-67
2023/03/13 05:00:11;;;;;;;5.83;1.00;;;12.60;99.90;;;;;;5091762;28;20445;-68
2023/03/13 05:02:36;;;;;;;3.05;0.60;;;12.70;99.90;;;;;;5076157;28;20089;-67
2023/03/13 05:05:02;;;;;;;3.27;0.73;;;12.60;99.90;;;;;;5075028;28;20024;-68
2023/03/13 05:07:28;;;;;;;1.75;0.60;;;12.60;99.90;;;;;;5074262;28;20138;-69
2023/03/13 05:09:53;;;;;;;1.47;0.70;;;12.70;99.90;;;;;;5074140;28;20149;-68
2023/03/13 05:12:19;;;;;;;2.63;0.73;;;12.60;99.90;;;;;;5074183;28;20040;-68
2023/03/13 05:14:44;;;;;;;2.03;0.80;;;12.60;99.90;;;;;;5073898;28;20031;-68
2023/03/13 05:17:11;;;;;;;2.53;0.60;;;12.50;99.90;;;;;;5089466;28;20035;-68
2023/03/13 05:19:36;;;;;;;2.47;0.63;;;12.40;99.90;;;;;;5094161;28;20027;-68
2023/03/13 05:22:02;;;;;;;2.93;1.13;;;12.40;99.90;;;;;;5095931;28;20028;-67
2023/03/13 05:24:28;;;;;;;3.15;0.60;;;12.30;99.90;;;;;;5096293;28;20035;-67
2023/03/13 05:26:53;;;;;;;2.90;0.43;;;12.20;99.90;;;;;;5096494;28;20425;-67
2023/03/13 05:29:19;;;;;;;2.60;0.50;;;12.20;99.90;;;;;;5096040;28;20036;-69
2023/03/13 05:31:44;;;;;;;2.07;0.60;;;12.20;99.90;;;;;;5084343;28;20496;-67
2023/03/13 05:34:10;;;;;;;1.50;0.43;;;12.30;99.90;;;;;;5078435;28;20024;-65
2023/03/13 05:36:35;;;;;;;2.57;0.80;;;12.30;99.90;;;;;;5077033;28;20538;-76
2023/03/13 05:39:03;;;;;;;1.03;0.43;;;12.40;99.90;;;;;;5076123;28;20473;-75
2023/03/13 05:41:29;;;;;;;2.97;0.70;;;12.40;99.90;;;;;;5075387;28;20017;-71
2023/03/13 05:43:55;;;;;;;1.40;0.40;;;12.40;99.90;;;;;;5076158;28;20497;-70
2023/03/13 05:46:20;;;;;;;1.17;0.70;;;12.40;99.90;;;;;;5061114;28;20032;-69
2023/03/13 05:48:46;;;;;;;7.87;3.77;;;12.30;99.90;;;;;;5075623;28;20099;-69
2023/03/13 05:51:11;;;;;;;1.97;0.70;;;12.40;99.90;;;;;;5082619;28;20027;-70
2023/03/13 05:53:37;;;;;;;2.00;0.50;;;12.40;99.90;;;;;;5067410;28;20028;-69
2023/03/13 05:56:03;;;;;;;2.70;0.53;;;12.40;99.90;;;;;;5075502;28;20182;-69
2023/03/13 05:58:28;;;;;;;2.20;0.60;;;12.40;99.90;;;;;;5074951;28;20279;-73
2023/03/13 06:00:55;;;;;;;1.13;0.47;;;12.40;99.90;;;;;;5075309;28;20024;-73
2023/03/13 06:03:20;;;;;;;3.53;0.50;;;12.50;99.90;;;;;;5053754;28;20116;-75
2023/03/13 06:05:46;;;;;;;0.87;0.50;;;12.50;99.90;;;;;;5058939;28;20111;-67
2023/03/13 06:08:11;;;;;;;1.17;0.50;;;12.50;99.90;;;;;;5066945;28;20478;-68
2023/03/13 06:10:37;;;;;;;1.00;0.40;;;12.50;99.90;;;;;;5075285;28;20032;-67
2023/03/13 06:13:02;;;;;;;1.50;0.43;;;12.50;99.90;;;;;;5070537;28;20086;-68
2023/03/13 06:15:28;;;;;;;1.03;0.60;;;12.50;99.90;;;;;;5057279;28;20078;-73
2023/03/13 06:17:53;;;;;;;1.03;0.50;;;12.60;99.90;;;;;;5056943;28;20030;-69
2023/03/13 06:20:19;;;;;;;1.60;0.60;;;12.70;99.90;;;;;;5076261;28;20024;-69
2023/03/13 06:22:44;;;;;;;1.60;0.60;;;12.60;99.90;;;;;;5058197;28;20021;-69
2023/03/13 06:25:10;;;;;;;1.60;0.70;;;12.60;99.90;;;;;;5074388;28;20029;-69
2023/03/13 06:27:36;;;;;;;1.52;0.40;;;12.70;99.90;;;;;;5075999;28;20028;-75
2023/03/13 06:30:03;;;;;;;2.20;0.63;;;12.70;99.90;;;;;;5057989;28;20404;-69
2023/03/13 06:32:29;;;;;;;2.08;0.60;;;12.70;99.90;;;;;;5075612;28;20120;-68
2023/03/13 06:34:54;;;;;;;0.93;0.60;;;12.60;99.90;;;;;;5057638;28;20374;-69
2023/03/13 06:37:20;;;;;;;1.70;0.50;;;12.70;99.90;;;;;;5075560;28;20366;-74
2023/03/13 06:39:46;;;;;;;1.00;0.40;;;12.80;99.90;;;;;;5058869;28;20370;-71
2023/03/13 06:42:11;;;;;;;0.55;0.30;;;12.70;99.90;;;;;;5057867;28;20025;-72
2023/03/13 06:44:37;;;;;;;2.77;0.50;;;12.70;99.90;;;;;;5057810;28;20036;-71
2023/03/13 06:47:02;;;;;;;1.73;0.60;;;12.70;99.90;;;;;;5074938;28;20051;-71
2023/03/13 06:49:28;;;;;;;1.43;0.60;;;12.70;99.90;;;;;;5057657;28;20031;-74
2023/03/13 06:51:56;;;;;;;1.20;0.63;;;12.70;99.90;;;;;;5076207;28;20107;-69
2023/03/13 06:54:22;;;;;;;2.20;0.43;;;12.70;99.90;;;;;;5075246;28;20028;-76
2023/03/13 06:56:47;;;;;;;1.57;0.70;;;12.70;99.90;;;;;;5056968;28;20109;-69
2023/03/13 06:59:13;;;;;;;1.13;0.50;;;12.70;99.90;;;;;;5063609;28;20147;-70
2023/03/13 07:01:39;;;;;;;1.73;0.50;;;12.70;99.90;;;;;;5062025;28;20349;-70
2023/03/13 07:04:04;;;;;;;3.20;0.53;;;12.70;99.90;;;;;;5064237;28;20032;-69
2023/03/13 07:06:30;;;;;;;1.23;0.60;;;12.70;99.90;;;;;;5056860;28;20123;-70
2023/03/13 07:08:55;;;;;;;5.93;0.57;;;12.70;99.90;;;;;;5059554;28;20466;-70
2023/03/13 07:11:21;;;;;;;1.27;0.50;;;12.70;99.90;;;;;;5073821;28;20036;-70
2023/03/13 07:13:46;;;;;;;1.27;0.60;;;12.70;99.90;;;;;;5069294;28;20085;-70
2023/03/13 07:16:12;;;;;;;1.77;0.60;;;12.70;99.90;;;;;;5072688;28;20031;-71
2023/03/13 07:18:43;;;;;;;1.23;0.60;;;12.80;99.90;;;;;;5073288;28;20027;-69
2023/03/13 07:21:09;;;;;;;1.73;0.85;;;12.80;99.90;;;;;;5074203;28;20016;-69
2023/03/13 07:23:35;;;;;;;1.38;0.50;;;12.80;99.90;;;;;;5074070;28;20021;-70
2023/03/13 07:26:03;;;;;;;1.47;0.60;;;12.80;99.90;;;;;;5056400;28;20025;-69
2023/03/13 07:28:30;;;;;;;0.98;0.50;;;12.90;99.90;;;;;;5073872;28;20503;-69
2023/03/13 07:31:22;;;;;;;1.75;0.63;;;12.90;99.90;;;;;;5056483;28;20428;-70
2023/03/13 07:33:48;;;;;;;1.20;0.55;;;13.00;99.90;;;;;;5073984;28;20021;-70
2023/03/13 07:36:14;;;;;;;2.42;0.60;;;13.10;99.90;;;;;;5073555;28;20025;-68
2023/03/13 07:38:42;;;;;;;2.30;0.70;;;13.20;99.90;;;;;;5073751;28;20020;-70
2023/03/13 07:41:11;;;;;;;1.17;0.50;;;13.20;99.90;;;;;;5073805;28;20024;-71
2023/03/13 07:43:36;;;;;;;0.82;0.50;;;13.20;99.90;;;;;;5073304;28;20017;-70
2023/03/13 07:46:06;;;;;;;0.83;0.47;;;13.30;99.90;;;;;;5079221;28;20473;-72
2023/03/13 07:48:37;;;;;;;1.45;0.90;;;13.30;99.90;;;;;;5093280;28;20445;-71
2023/03/13 07:51:10;;;;;;;2.20;0.80;;;13.40;99.90;;;;;;5075291;28;20089;-72
2023/03/13 07:53:36;;;;;;;1.88;0.70;;;13.50;99.90;;;;;;5093906;28;20017;-71
2023/03/13 07:56:08;;;;;;;2.23;0.60;;;13.50;99.90;;;;;;5075487;28;20020;-70
2023/03/13 07:58:36;;;;;;;0.70;0.40;;;13.60;99.90;;;;;;5093540;28;20024;-71
2023/03/13 08:01:11;;;;;;;1.17;0.70;;;13.70;99.90;;;;;;5093178;28;20110;-69
2023/03/13 08:03:37;;;;;;;2.25;0.50;;;13.80;99.90;;;;;;5093099;28;20047;-71
2023/03/13 08:06:08;;;;;;;0.73;0.45;;;13.80;99.90;;;;;;5093404;28;20020;-71
2023/03/13 08:08:34;;;;;;;0.50;0.40;;;13.90;99.90;;;;;;5074355;28;20020;-70
2023/03/13 08:11:05;;;;;;;1.05;0.50;;;13.90;99.90;;;;;;5074888;28;20111;-70
2023/03/13 08:13:32;;;;;;;2.22;0.50;;;13.90;99.90;;;;;;5075215;28;20111;-70
2023/03/13 08:16:15;;;;;;;2.45;0.90;;;14.00;99.90;;;;;;5069814;28;20024;-71
2023/03/13 08:18:47;;;;;;;2.50;0.60;;;14.10;99.90;;;;;;5077499;28;20031;-71
2023/03/13 08:21:15;;;;;;;2.67;0.77;;;14.10;99.90;;;;;;5074820;28;20477;-71
2023/03/13 08:23:41;;;;;;;0.90;0.60;;;14.10;99.90;;;;;;5073675;28;20033;-71
2023/03/13 08:26:13;;;;;;;2.42;0.55;;;14.20;99.90;;;;;;5073694;28;20032;-70
2023/03/13 08:28:39;;;;;;;2.10;0.70;;;14.20;99.90;;;;;;5055646;28;20080;-70
2023/03/13 08:31:16;;;;;;;3.10;0.57;;;14.20;99.90;;;;;;5072801;28;20028;-70
2023/03/13 08:33:44;;;;;;;0.93;0.55;;;14.20;99.90;;;;;;5072158;28;20036;-70
2023/03/13 08:36:17;;;;;;;1.85;0.60;;;14.20;99.90;;;;;;5072611;28;20021;-70
2023/03/13 08:38:44;;;;;;;1.33;0.70;;;14.20;99.90;;;;;;5055565;28;20040;-70
2023/03/13 08:41:11;;;;;;;1.10;0.45;;;14.10;99.90;;;;;;5072638;28;20418;-70
2023/03/13 08:43:37;;;;;;;1.00;0.50;;;14.20;99.90;;;;;;5055339;28;20021;-71
2023/03/13 08:46:02;;;;;;;1.17;0.50;;;14.10;99.90;;;;;;5078669;28;20039;-71
2023/03/13 08:48:28;;;;;;;1.27;0.50;;;14.20;99.90;;;;;;5074196;28;20461;-70
2023/03/13 08:51:02;;;;;;;2.43;0.63;;;14.20;99.90;;;;;;5093638;28;20028;-71
2023/03/13 08:53:28;;;;;;;1.48;0.52;;;14.30;99.90;;;;;;5092736;28;20027;-71
2023/03/13 08:55:54;;;;;;;2.83;0.60;;;14.30;99.90;;;;;;5094020;28;20020;-71
2023/03/13 08:58:20;;;;;;;2.42;0.70;;;14.40;99.90;;;;;;5092844;28;20028;-71
2023/03/13 09:00:45;;;;;;;1.08;0.55;;;14.40;99.90;;;;;;5074654;28;20016;-71
2023/03/13 09:03:11;;;;;;;1.80;0.83;;;14.50;99.90;;;;;;5074347;28;20028;-71
2023/03/13 09:05:37;;;;;;;1.63;0.77;;;14.50;99.90;;;;;;5074523;28;20392;-71
2023/03/13 09:08:03;;;;;;;1.58;0.50;;;14.50;99.90;;;;;;5092613;28;20433;-70
2023/03/13 09:10:28;;;;;;;2.57;0.70;;;14.50;99.90;;;;;;5074283;28;20047;-71
2023/03/13 09:12:54;;;;;;;1.20;0.60;;;14.70;99.90;;;;;;5092513;28;20275;-70
2023/03/13 09:15:19;;;;;;;1.85;0.60;;;14.80;99.90;;;;;;5074270;28;20032;-70
2023/03/13 09:17:45;;;;;;;1.00;0.45;;;14.90;99.90;;;;;;5072769;28;20028;-71
2023/03/13 09:20:11;;;;;;;1.17;0.60;;;15.10;99.90;;;;;;5094202;28;20077;-71
2023/03/13 09:22:36;;;;;;;2.25;0.60;;;15.20;99.90;;;;;;5100369;28;20031;-70
2023/03/13 09:25:02;;;;;;;1.20;0.63;;;15.60;99.90;;;;;;5099609;28;20020;-71
2023/03/13 09:27:27;;;;;;;1.52;0.60;;;16.10;99.90;;;;;;5102185;28;20067;-70
2023/03/13 09:29:53;;;;;;;2.03;0.57;;;16.80;99.90;;;;;;5101057;28;20044;-70
2023/03/13 09:32:19;;;;;;;2.25;0.60;;;16.60;99.90;;;;;;5097842;28;20024;-70
2023/03/13 09:34:45;;;;;;;2.70;0.75;;;16.60;99.90;;;;;;5096269;28;20039;-71
2023/03/13 09:37:11;;;;;;;2.13;0.68;;;16.60;99.90;;;;;;5077609;28;20146;-72
2023/03/13 09:39:37;;;;;;;2.42;0.98;;;16.40;99.90;;;;;;5077659;28;20074;-70
2023/03/13 09:42:28;;;;;;;2.50;0.95;;;16.30;99.90;;;;;;5102260;28;20039;-71
2023/03/13 09:45:07;;;;;;;1.48;0.73;;;16.30;99.90;;;;;;5103383;28;20145;-71
2023/03/13 09:47:47;;;;;;;5.82;2.67;;;16.50;99.90;;;;;;5083809;28;20024;-71
2023/03/13 09:50:26;;;;;;;4.85;1.10;;;16.50;99.90;;;;;;5098678;28;20103;-71
2023/03/13 09:52:56;;;;;;;4.95;1.20;;;16.50;99.90;;;;;;5077285;28;20029;-71
2023/03/13 09:55:33;;;;;;;2.20;0.90;;;16.40;99.90;;;;;;5075808;28;20050;-71
2023/03/13 09:58:16;;;;;;;2.50;1.00;;;16.20;99.90;;;;;;5057393;28;20020;-71
2023/03/13 10:00:56;;;;;;;3.22;1.00;;;16.10;99.90;;;;;;5075663;28;20032;-70
2023/03/13 10:03:50;;;;;;;1.60;0.80;;;16.00;99.90;;;;;;5057889;28;20392;-71
2023/03/13 10:06:21;;;;;;;0.93;0.77;;;16.00;99.90;;;;;;5057184;28;20020;-71
2023/03/13 10:08:46;;;;;;;2.38;0.85;;;16.00;99.90;;;;;;5075065;28;20024;-70
2023/03/13 10:11:26;;;;;;;4.00;2.40;;;16.00;99.90;;;;;;5057071;28;20032;-71
2023/03/13 10:13:57;;;;;;;5.78;1.40;;;16.00;99.90;;;;;;5074928;28;20036;-70
2023/03/13 10:16:45;;;;;;;2.05;0.98;;;16.20;99.90;;;;;;5074495;28;20046;-71
2023/03/13 10:19:16;;;;;;;3.95;1.05;;;16.50;99.90;;;;;;5075216;28;20017;-71
2023/03/13 10:21:46;;;;;;;1.75;0.88;;;16.60;99.90;;;;;;5074943;28;20028;-71
2023/03/13 10:24:36;;;;;;;27.15;10.68;;;16.60;99.90;;;;;;5074840;28;20025;-71
2023/03/13 10:27:02;;;;;;;2.30;1.35;;;16.40;99.90;;;;;;5074835;28;20048;-71
2023/03/13 10:29:29;;;;;;;1.85;0.80;;;16.50;99.90;;;;;;5074393;28;20153;-71
2023/03/13 10:31:57;;;;;;;1.80;1.17;;;16.40;99.90;;;;;;5055738;28;20035;-71
2023/03/13 10:34:23;;;;;;;3.47;1.67;;;16.30;99.90;;;;;;5074554;28;20057;-70
2023/03/13 10:36:55;;;;;;;4.40;1.15;;;16.30;99.90;;;;;;5056494;28;20147;-71
2023/03/13 10:39:23;;;;;;;3.15;1.10;;;16.20;99.90;;;;;;5074370;28;20028;-71
2023/03/13 10:41:54;;;;;;;4.57;1.23;;;16.10;99.90;;;;;;5074872;28;20078;-71
2023/03/13 10:44:22;;;;;;;1.77;0.98;;;16.10;99.90;;;;;;5056402;28;20124;-71
2023/03/13 10:46:49;;;;;;;4.80;1.20;;;16.30;99.90;;;;;;5073572;28;20032;-70
2023/03/13 10:49:19;;;;;;;6.80;1.10;;;17.70;99.90;;;;;;5056482;28;20028;-71
2023/03/13 10:51:59;;;;;;;2.60;0.93;;;19.50;99.90;;;;;;5075681;28;20512;-71
2023/03/13 10:54:26;;;;;;;1.60;1.00;;;19.80;99.90;;;;;;5075095;28;20032;-71
2023/03/13 10:57:06;;;;;;;4.07;1.10;;;20.90;99.90;;;;;;5074218;28;20489;-71
2023/03/13 10:59:37;;;;;;;2.15;0.98;;;22.00;99.10;;;;;;5074337;28;20060;-71
2023/03/13 11:02:18;;;;;;;2.75;1.00;;;23.60;96.30;;;;;;5056343;28;20017;-71
2023/03/13 11:04:48;;;;;;;2.47;0.80;;;24.90;94.30;;;;;;5074365;28;20477;-71
2023/03/13 11:07:19;;;;;;;2.03;0.80;;;25.40;92.00;;;;;;5074437;28;20028;-71
2023/03/13 11:09:58;;;;;;;4.85;1.00;;;25.90;90.80;;;;;;5073787;28;20113;-71
2023/03/13 11:12:23;;;;;;;3.03;1.30;;;26.50;88.80;;;;;;5073911;28;20033;-72
2023/03/13 11:14:56;;;;;;;1.88;0.93;;;26.70;87.70;;;;;;5055886;28;20097;-72
2023/03/13 11:17:38;;;;;;;1.63;1.00;;;24.90;88.60;;;;;;5073045;28;20473;-71
2023/03/13 11:20:26;;;;;;;2.15;1.08;;;23.20;91.30;;;;;;5055712;28;20059;-71
2023/03/13 11:23:13;;;;;;;3.53;1.00;;;21.50;93.80;;;;;;5073606;28;20028;-71
2023/03/13 11:26:02;;;;;;;2.45;1.00;;;20.70;95.20;;;;;;5073634;28;20024;-70
2023/03/13 11:28:35;;;;;;;2.47;1.05;;;19.90;96.70;;;;;;5073294;28;20039;-71
2023/03/13 11:31:18;;;;;;;1.75;1.10;;;19.50;98.10;;;;;;5073284;28;20037;-71
2023/03/13 11:33:56;;;;;;;2.42;1.10;;;19.40;98.90;;;;;;5073804;28;20451;-72
2023/03/13 11:36:35;;;;;;;2.03;1.00;;;19.40;99.30;;;;;;5056214;28;20027;-71
2023/03/13 11:39:10;;;;;;;2.03;1.40;;;19.50;99.10;;;;;;5074112;28;20020;-71
2023/03/13 11:41:59;;;;;;;5.30;1.10;;;19.40;99.20;;;;;;5055424;28;20070;-72
2023/03/13 11:44:56;;;;;;;2.83;1.23;;;19.50;99.70;;;;;;5046165;28;20550;-70
2023/03/13 11:47:48;;;;;;;4.65;1.45;;;19.60;99.30;;;;;;5073178;28;20100;-70
2023/03/13 11:50:19;;;;;;;2.92;1.58;;;19.60;99.10;;;;;;5074249;28;20021;-71
2023/03/13 11:52:57;;;;;;;3.92;1.63;;;19.70;99.00;;;;;;5074160;28;20512;-71
2023/03/13 11:55:55;;;;;;;3.95;1.30;;;19.80;98.60;;;;;;5055391;28;20481;-71
2023/03/13 11:58:59;;;;;;;1.70;1.10;;;19.70;98.70;;;;;;5055604;28;20115;-71
2023/03/13 12:01:29;;;;;;;6.35;1.15;;;19.80;98.90;;;;;;5055981;28;20012;-72
2023/03/13 12:04:34;;;;;;;3.35;1.20;;;19.80;98.80;;;;;;5055480;28;20020;-71
2023/03/13 12:07:02;;;;;;;1.70;1.00;;;19.90;98.70;;;;;;5012445;28;20052;-72
2023/03/13 12:09:40;;;;;;;2.53;1.10;;;20.00;98.50;;;;;;5013705;28;20030;-70
2023/03/13 12:12:30;;;;;;;2.15;1.10;;;20.00;97.90;;;;;;5018879;28;20034;-69
2023/03/13 12:15:13;;;;;;;3.58;1.30;;;20.00;98.20;;;;;;5020993;28;20030;-71
2023/03/13 12:17:50;;;;;;;2.45;0.90;;;20.00;98.30;;;;;;5019237;28;20029;-71
2023/03/13 12:20:43;;;;;;;4.18;1.08;;;19.90;98.40;;;;;;5016999;28;20071;-70
2023/03/13 12:23:16;;;;;;;3.00;1.10;;;19.90;98.60;;;;;;5008416;28;20065;-70
2023/03/13 12:26:07;;;;;;;3.75;1.10;;;19.90;98.50;;;;;;5033456;28;20029;-71
2023/03/13 12:29:03;;;;;;;2.75;1.10;;;19.90;98.60;;;;;;5030843;28;20124;-71
2023/03/13 12:31:39;;;;;;;3.58;1.00;;;20.00;98.30;;;;;;5032246;28;20119;-71
2023/03/13 12:34:32;;;;;;;1.90;1.08;;;19.90;98.30;;;;;;5015991;28;20136;-71
2023/03/13 12:37:05;;;;;;;3.33;1.00;;;19.90;98.30;;;;;;5041259;28;20031;-71
2023/03/13 12:39:38;;;;;;;2.05;1.17;;;20.00;98.10;;;;;;5074936;28;20031;-71
2023/03/13 12:42:38;;;;;;;1.42;0.90;;;20.10;98.20;;;;;;5094011;28;20024;-70
2023/03/13 12:45:07;;;;;;;2.40;1.00;;;20.20;97.90;;;;;;5093809;28;20154;-71
2023/03/13 12:47:50;;;;;;;2.03;1.00;;;20.30;98.00;;;;;;5079526;28;20028;-71
2023/03/13 12:50:29;;;;;;;2.88;1.10;;;20.40;97.60;;;;;;5072544;28;20055;-70
2023/03/13 12:53:06;;;;;;;1.83;0.95;;;20.50;97.50;;;;;;5072795;28;20043;-70
2023/03/13 12:55:48;;;;;;;3.13;1.50;;;20.60;97.40;;;;;;5075173;28;20028;-70
2023/03/13 12:58:23;;;;;;;1.40;0.77;;;20.70;97.30;;;;;;5076673;28;20028;-70
2023/03/13 13:00:50;;;;;;;2.33;1.00;;;20.80;97.10;;;;;;5058654;28;20035;-71